createdAt,value
2018-08-04T00:00:20.305Z,18.87
2018-08-04T00:02:47.948Z,20.93
2018-08-04T00:05:15.507Z,20.07
2018-08-04T00:07:43.075Z,20.73
2018-08-04T00:10:19.186Z,19.90
2018-08-04T00:12:48.560Z,18.93
2018-08-04T00:15:16.251Z,20.40
2018-08-04T00:17:44.098Z,21.30
2018-08-04T00:20:11.749Z,19.63
2018-08-04T00:22:40.024Z,20.20
2018-08-04T00:25:07.634Z,19.93
2018-08-04T00:27:35.209Z,17.57
2018-08-04T00:30:03.552Z,18.40
2018-08-04T00:32:31.169Z,19.90
2018-08-04T00:34:58.786Z,18.53
2018-08-04T00:37:26.476Z,20.37
2018-08-04T00:39:54.089Z,19.97
2018-08-04T00:42:21.662Z,21.87
2018-08-04T00:44:49.247Z,19.53
2018-08-04T00:47:16.834Z,18.93
2018-08-04T00:49:44.395Z,20.17
2018-08-04T00:52:12.104Z,20.30
2018-08-04T00:54:39.672Z,19.20
2018-08-04T00:57:07.229Z,19.90
2018-08-04T00:59:34.815Z,20.07
2018-08-04T01:02:02.468Z,20.03
2018-08-04T01:04:30.013Z,20.63
2018-08-04T01:06:57.628Z,20.20
2018-08-04T01:09:25.173Z,20.80
2018-08-04T01:11:52.803Z,19.77
2018-08-04T01:14:20.985Z,20.70
2018-08-04T01:16:48.536Z,20.07
2018-08-04T01:19:16.204Z,20.43
2018-08-04T01:21:43.805Z,19.53
2018-08-04T01:24:11.369Z,19.30
2018-08-04T01:26:38.960Z,20.10
2018-08-04T01:29:06.510Z,21.47
2018-08-04T01:31:34.103Z,20.67
2018-08-04T01:34:01.749Z,20.20
2018-08-04T01:36:29.299Z,21.00
2018-08-04T01:38:56.933Z,20.67
2018-08-04T01:41:24.509Z,21.10
2018-08-04T01:43:52.591Z,21.90
2018-08-04T01:46:20.160Z,20.97
2018-08-04T01:48:47.724Z,20.20
2018-08-04T01:51:15.282Z,20.80
2018-08-04T01:53:42.945Z,21.30
2018-08-04T01:56:10.504Z,20.30
2018-08-04T01:58:38.062Z,20.10
2018-08-04T02:01:05.723Z,20.33
2018-08-04T02:03:33.274Z,19.20
2018-08-04T02:06:00.867Z,20.53
2018-08-04T02:08:28.443Z,19.47
2018-08-04T02:10:56.024Z,19.87
2018-08-04T02:13:23.747Z,20.23
2018-08-04T02:15:51.304Z,21.50
2018-08-04T02:18:18.861Z,19.70
2018-08-04T02:20:46.419Z,22.07
2018-08-04T02:23:13.990Z,20.90
2018-08-04T02:25:41.558Z,20.30
2018-08-04T02:28:09.139Z,20.23
2018-08-04T02:30:36.750Z,20.63
2018-08-04T02:33:04.329Z,22.33
2018-08-04T02:35:31.937Z,22.17
2018-08-04T02:37:59.528Z,20.50
2018-08-04T02:40:27.901Z,20.57
2018-08-04T02:42:56.465Z,20.63
2018-08-04T02:45:25.571Z,20.90
2018-08-04T02:47:53.119Z,20.60
2018-08-04T02:50:20.689Z,22.00
2018-08-04T02:52:48.297Z,23.40
2018-08-04T02:55:15.903Z,22.33
2018-08-04T02:57:43.468Z,22.93
2018-08-04T03:00:11.055Z,21.00
2018-08-04T03:02:38.639Z,20.50
2018-08-04T03:05:06.669Z,21.33
2018-08-04T03:07:34.281Z,22.03
2018-08-04T03:10:01.857Z,22.40
2018-08-04T03:12:29.433Z,23.03
2018-08-04T03:14:57.045Z,21.50
2018-08-04T03:17:24.643Z,21.50
2018-08-04T03:19:52.171Z,21.67
2018-08-04T03:22:19.735Z,21.93
2018-08-04T03:24:47.308Z,22.17
2018-08-04T03:27:14.874Z,22.03
2018-08-04T03:29:42.452Z,20.73
2018-08-04T03:32:10.033Z,21.40
2018-08-04T03:34:37.595Z,22.33
2018-08-04T03:37:05.235Z,22.23
2018-08-04T03:39:32.771Z,23.77
2018-08-04T03:42:00.333Z,20.47
2018-08-04T03:44:27.902Z,22.20
2018-08-04T03:46:55.462Z,22.53
2018-08-04T03:49:23.166Z,22.53
2018-08-04T03:51:50.761Z,23.83
2018-08-04T03:54:18.317Z,23.77
2018-08-04T03:56:45.936Z,23.33
2018-08-04T03:59:13.482Z,23.90
2018-08-04T04:01:41.551Z,23.40
2018-08-04T04:04:09.146Z,23.43
2018-08-04T04:06:37.861Z,24.30
2018-08-04T04:09:07.443Z,25.30
2018-08-04T04:11:35.097Z,24.13
2018-08-04T04:14:02.772Z,25.00
2018-08-04T04:16:30.332Z,23.87
2018-08-04T04:18:58.046Z,24.57
2018-08-04T04:21:25.609Z,23.77
2018-08-04T04:23:53.151Z,23.30
2018-08-04T04:26:20.753Z,23.43
2018-08-04T04:28:48.335Z,23.20
2018-08-04T04:31:15.946Z,24.10
2018-08-04T04:33:43.545Z,23.63
2018-08-04T04:36:11.163Z,23.03
2018-08-04T04:38:38.715Z,23.77
2018-08-04T04:41:07.188Z,25.07
2018-08-04T04:43:34.767Z,26.00
2018-08-04T04:46:02.435Z,25.67
2018-08-04T04:48:29.995Z,25.27
2018-08-04T04:50:57.548Z,23.67
2018-08-04T04:53:25.114Z,24.30
2018-08-04T04:55:53.763Z,25.20
2018-08-04T04:58:21.325Z,26.37
2018-08-04T05:00:48.952Z,27.00
2018-08-04T05:03:16.564Z,26.07
2018-08-04T05:05:44.137Z,26.47
2018-08-04T05:08:11.687Z,24.60
2018-08-04T05:10:39.275Z,27.13
2018-08-04T05:13:07.504Z,26.30
2018-08-04T05:15:35.090Z,24.17
2018-08-04T05:18:02.679Z,24.20
2018-08-04T05:20:30.282Z,26.97
2018-08-04T05:22:57.941Z,26.70
2018-08-04T05:25:25.538Z,27.10
2018-08-04T05:27:53.169Z,27.27
2018-08-04T05:30:20.765Z,28.47
2018-08-04T05:32:48.402Z,27.20
2018-08-04T05:35:16.533Z,28.10
2018-08-04T05:37:44.111Z,24.97
2018-08-04T05:40:11.693Z,27.60
2018-08-04T05:42:39.227Z,26.97
2018-08-04T05:45:07.831Z,27.10
2018-08-04T05:47:35.550Z,29.10
2018-08-04T05:50:04.141Z,27.77
2018-08-04T05:52:31.741Z,27.60
2018-08-04T05:54:59.318Z,27.83
2018-08-04T05:57:26.905Z,27.83
2018-08-04T05:59:54.504Z,27.80
2018-08-04T06:02:22.102Z,29.00
2018-08-04T06:04:49.663Z,30.03
2018-08-04T06:07:17.220Z,26.77
2018-08-04T06:09:44.774Z,29.10
2018-08-04T06:12:12.328Z,27.93
2018-08-04T06:14:39.887Z,30.93
2018-08-04T06:17:07.462Z,33.17
2018-08-04T06:19:35.179Z,33.40
2018-08-04T06:22:02.805Z,32.03
2018-08-04T06:24:30.320Z,33.10
2018-08-04T06:26:57.919Z,32.73
2018-08-04T06:29:25.520Z,30.80
2018-08-04T06:31:53.333Z,32.80
2018-08-04T06:34:20.953Z,29.60
2018-08-04T06:36:48.641Z,28.73
2018-08-04T06:39:16.276Z,27.67
2018-08-04T06:41:43.950Z,32.10
2018-08-04T06:44:11.480Z,31.40
2018-08-04T06:46:39.059Z,30.93
2018-08-04T06:49:06.735Z,30.83
2018-08-04T06:51:34.347Z,31.93
2018-08-04T06:54:02.614Z,30.20
2018-08-04T06:56:30.186Z,30.63
2018-08-04T06:58:58.613Z,30.47
2018-08-04T07:01:26.220Z,28.33
2018-08-04T07:03:53.923Z,30.87
2018-08-04T07:06:22.081Z,29.90
2018-08-04T07:08:49.682Z,31.43
2018-08-04T07:11:18.075Z,30.90
2018-08-04T07:13:45.682Z,26.60
2018-08-04T07:16:13.332Z,26.53
2018-08-04T07:18:40.940Z,25.17
2018-08-04T07:21:08.595Z,27.20
2018-08-04T07:23:36.136Z,25.23
2018-08-04T07:26:03.802Z,28.07
2018-08-04T07:28:31.348Z,27.90
2018-08-04T07:30:58.893Z,25.30
2018-08-04T07:33:27.057Z,27.70
2018-08-04T07:35:54.713Z,25.97
2018-08-04T07:38:22.881Z,26.50
2018-08-04T07:40:50.550Z,25.40
2018-08-04T07:43:18.143Z,26.87
2018-08-04T07:45:45.766Z,25.40
2018-08-04T07:48:13.352Z,25.50
2018-08-04T07:50:40.944Z,26.40
2018-08-04T07:53:08.535Z,24.93
2018-08-04T07:55:36.145Z,23.83
2018-08-04T07:58:03.881Z,24.23
2018-08-04T08:00:31.510Z,24.17
2018-08-04T08:02:59.109Z,24.47
2018-08-04T08:05:26.719Z,23.17
2018-08-04T08:07:54.337Z,23.40
2018-08-04T08:10:21.931Z,25.10
2018-08-04T08:12:49.612Z,22.40
2018-08-04T08:15:17.507Z,21.43
2018-08-04T08:17:45.125Z,20.80
2018-08-04T08:20:12.836Z,20.37
2018-08-04T08:22:41.627Z,21.23
2018-08-04T08:25:09.651Z,20.80
2018-08-04T08:27:37.578Z,21.00
2018-08-04T08:30:07.546Z,22.70
2018-08-04T08:32:35.161Z,20.93
2018-08-04T08:35:02.899Z,20.80
2018-08-04T08:37:30.480Z,17.97
2018-08-04T08:39:58.109Z,19.80
2018-08-04T08:42:25.835Z,18.30
2018-08-04T08:44:54.491Z,19.20
2018-08-04T08:47:22.106Z,19.20
2018-08-04T08:49:49.782Z,17.57
2018-08-04T08:52:18.406Z,17.00
2018-08-04T08:54:46.210Z,17.50
2018-08-04T08:57:13.861Z,17.87
2018-08-04T08:59:41.552Z,16.20
2018-08-04T09:02:09.191Z,16.87
2018-08-04T09:04:36.887Z,15.33
2018-08-04T09:07:04.648Z,16.10
2018-08-04T09:09:32.257Z,16.60
2018-08-04T09:11:59.824Z,15.67
2018-08-04T09:14:27.466Z,14.97
2018-08-04T09:16:55.093Z,16.10
2018-08-04T09:19:22.714Z,15.20
2018-08-04T09:21:50.340Z,15.60
2018-08-04T09:24:17.881Z,14.80
2018-08-04T09:26:45.488Z,15.47
2018-08-04T09:29:13.128Z,16.00
2018-08-04T09:31:40.824Z,16.07
2018-08-04T09:34:08.411Z,16.10
2018-08-04T09:36:36.118Z,14.67
2018-08-04T09:39:07.279Z,14.90
2018-08-04T09:41:34.867Z,15.67
2018-08-04T09:44:02.428Z,15.67
2018-08-04T09:46:30.151Z,14.47
2018-08-04T09:48:57.774Z,15.10
2018-08-04T09:51:25.404Z,15.97
2018-08-04T09:53:52.950Z,15.90
2018-08-04T09:56:23.464Z,16.20
2018-08-04T09:58:51.172Z,15.80
2018-08-04T10:01:24.228Z,14.83
2018-08-04T10:03:52.954Z,14.80
2018-08-04T10:06:20.787Z,14.07
2018-08-04T10:08:48.456Z,14.20
2018-08-04T10:11:16.181Z,14.83
2018-08-04T10:13:43.815Z,14.30
2018-08-04T10:16:12.318Z,13.80
2018-08-04T10:18:39.933Z,13.10
2018-08-04T10:21:07.609Z,13.70
2018-08-04T10:23:35.284Z,13.80
2018-08-04T10:26:03.005Z,13.07
2018-08-04T10:28:30.560Z,13.00
2018-08-04T10:30:58.194Z,13.07
2018-08-04T10:33:25.816Z,12.00
2018-08-04T10:35:53.567Z,12.93
2018-08-04T10:38:21.111Z,13.97
2018-08-04T10:40:48.732Z,12.87
2018-08-04T10:43:16.311Z,13.40
2018-08-04T10:45:43.973Z,13.60
2018-08-04T10:48:11.624Z,13.87
2018-08-04T10:50:39.453Z,12.60
2018-08-04T10:53:07.175Z,12.83
2018-08-04T10:55:35.120Z,12.60
2018-08-04T10:58:04.193Z,12.90
2018-08-04T11:00:32.247Z,14.10
2018-08-04T11:02:59.849Z,14.10
2018-08-04T11:05:27.430Z,15.37
2018-08-04T11:07:55.068Z,14.80
2018-08-04T11:10:23.678Z,16.63
2018-08-04T11:12:51.589Z,17.50
2018-08-04T11:15:19.355Z,17.07
2018-08-04T11:17:47.659Z,18.80
2018-08-04T11:20:15.271Z,17.37
2018-08-04T11:22:42.924Z,17.47
2018-08-04T11:25:10.567Z,17.13
2018-08-04T11:27:38.203Z,18.20
2018-08-04T11:30:06.840Z,17.50
2018-08-04T11:32:34.433Z,17.00
2018-08-04T11:35:03.003Z,18.47
2018-08-04T11:37:30.611Z,15.30
2018-08-04T11:39:58.224Z,15.03
2018-08-04T11:42:25.862Z,13.60
2018-08-04T11:44:53.523Z,13.90
2018-08-04T11:47:21.010Z,13.20
2018-08-04T11:49:48.605Z,14.10
2018-08-04T11:52:16.282Z,13.50
2018-08-04T11:54:43.856Z,14.13
2018-08-04T11:57:11.455Z,13.53
2018-08-04T11:59:39.054Z,12.83
2018-08-04T12:02:06.765Z,13.00
2018-08-04T12:04:36.583Z,13.10
2018-08-04T12:07:04.236Z,12.50
2018-08-04T12:09:31.928Z,13.40
2018-08-04T12:11:59.598Z,14.55
2018-08-04T12:14:27.262Z,12.53
2018-08-04T12:16:54.850Z,13.10
2018-08-04T12:19:22.493Z,14.40
2018-08-04T12:21:50.128Z,14.70
2018-08-04T12:24:17.739Z,13.13
2018-08-04T12:26:45.310Z,12.30
2018-08-04T12:29:13.199Z,14.33
2018-08-04T12:31:40.841Z,12.77
2018-08-04T12:34:08.436Z,14.40
2018-08-04T12:36:37.083Z,13.60
2018-08-04T12:39:07.473Z,12.53
2018-08-04T12:41:35.097Z,12.80
2018-08-04T12:44:03.043Z,13.33
2018-08-04T12:46:30.629Z,12.90
2018-08-04T12:48:58.269Z,13.37
2018-08-04T12:51:25.929Z,13.73
2018-08-04T12:53:53.603Z,13.60
2018-08-04T12:56:27.854Z,13.30
2018-08-04T12:58:55.430Z,13.83
2018-08-04T13:01:23.047Z,11.53
2018-08-04T13:03:50.694Z,12.67
2018-08-04T13:06:18.317Z,11.63
2018-08-04T13:08:46.022Z,11.23
2018-08-04T13:11:13.593Z,11.67
2018-08-04T13:13:41.201Z,11.60
2018-08-04T13:16:09.575Z,11.20
2018-08-04T13:18:37.188Z,12.33
2018-08-04T13:21:04.890Z,10.97
2018-08-04T13:23:32.450Z,11.57
2018-08-04T13:26:00.562Z,10.33
2018-08-04T13:28:28.319Z,11.83
2018-08-04T13:30:56.012Z,11.63
2018-08-04T13:33:23.760Z,12.10
2018-08-04T13:35:51.458Z,11.10
2018-08-04T13:38:19.162Z,10.90
2018-08-04T13:40:46.937Z,11.60
2018-08-04T13:43:14.644Z,11.47
2018-08-04T13:45:42.307Z,10.57
2018-08-04T13:48:09.934Z,11.23
2018-08-04T13:50:37.568Z,12.07
2018-08-04T13:53:05.163Z,11.80
2018-08-04T13:55:32.868Z,11.83
2018-08-04T13:58:01.578Z,12.63
2018-08-04T14:00:30.050Z,11.93
2018-08-04T14:02:57.903Z,12.47
2018-08-04T14:05:25.589Z,11.83
2018-08-04T14:07:53.278Z,12.67
2018-08-04T14:10:20.943Z,12.93
2018-08-04T14:12:48.666Z,12.77
2018-08-04T14:15:16.487Z,12.53
2018-08-04T14:17:44.230Z,12.20
2018-08-04T14:20:11.896Z,13.13
2018-08-04T14:22:39.508Z,12.20
2018-08-04T14:25:07.225Z,12.73
2018-08-04T14:27:34.868Z,12.90
2018-08-04T14:30:03.168Z,12.73
2018-08-04T14:32:30.881Z,12.90
2018-08-04T14:34:58.499Z,12.47
2018-08-04T14:37:26.153Z,12.10
2018-08-04T14:42:28.091Z,12.00
2018-08-04T14:44:55.725Z,11.50
2018-08-04T14:47:23.335Z,12.90
2018-08-04T14:49:50.937Z,12.67
2018-08-04T14:52:18.536Z,12.30
2018-08-04T14:54:46.174Z,11.77
2018-08-04T14:57:13.743Z,11.97
2018-08-04T14:59:41.327Z,11.60
2018-08-04T15:02:09.068Z,12.17
2018-08-04T15:04:36.766Z,11.90
2018-08-04T15:07:04.354Z,12.20
2018-08-04T15:09:32.483Z,12.17
2018-08-04T15:12:00.075Z,11.40
2018-08-04T15:14:28.216Z,11.50
2018-08-04T15:16:55.840Z,10.30
2018-08-04T15:19:23.475Z,11.10
2018-08-04T15:21:51.064Z,10.93
2018-08-04T15:24:18.676Z,12.43
2018-08-04T15:26:46.296Z,11.60
2018-08-04T15:29:14.478Z,12.13
2018-08-04T15:31:42.035Z,11.90
2018-08-04T15:34:09.640Z,11.90
2018-08-04T15:36:37.295Z,12.97
2018-08-04T15:39:07.372Z,10.60
2018-08-04T15:41:35.034Z,11.10
2018-08-04T15:44:02.641Z,11.70
2018-08-04T15:46:31.196Z,12.07
2018-08-04T15:48:58.799Z,12.63
2018-08-04T15:51:26.453Z,11.93
2018-08-04T15:53:54.046Z,12.30
2018-08-04T15:56:21.665Z,10.70
2018-08-04T15:58:49.904Z,10.97
2018-08-04T16:01:17.527Z,11.33
2018-08-04T16:03:45.214Z,11.70
2018-08-04T16:06:12.765Z,11.17
2018-08-04T16:08:41.123Z,12.00
2018-08-04T16:11:08.694Z,12.40
2018-08-04T16:13:36.286Z,12.17
2018-08-04T16:16:03.876Z,11.50
2018-08-04T16:18:31.514Z,10.77
2018-08-04T16:20:59.127Z,11.30
2018-08-04T16:23:26.697Z,12.47
2018-08-04T16:25:54.296Z,12.23
2018-08-04T16:28:21.848Z,10.90
2018-08-04T16:30:49.466Z,11.67
2018-08-04T16:33:17.070Z,11.50
2018-08-04T16:35:44.613Z,10.73
2018-08-04T16:38:12.163Z,11.20
2018-08-04T16:40:39.786Z,11.10
2018-08-04T16:43:07.376Z,11.47
2018-08-04T16:45:34.958Z,11.50
2018-08-04T16:48:02.743Z,11.57
2018-08-04T16:50:30.309Z,11.80
2018-08-04T16:52:57.875Z,11.37
2018-08-04T16:55:25.474Z,11.17
2018-08-04T16:57:53.141Z,11.63
2018-08-04T17:00:20.733Z,14.23
2018-08-04T17:02:48.374Z,15.03
2018-08-04T17:05:15.981Z,15.57
2018-08-04T17:07:43.644Z,13.10
2018-08-04T17:10:11.155Z,13.50
2018-08-04T17:12:38.756Z,12.70
2018-08-04T17:15:06.416Z,14.20
2018-08-04T17:17:34.110Z,12.80
2018-08-04T17:20:01.871Z,12.77
2018-08-04T17:22:29.507Z,13.33
2018-08-04T17:24:57.129Z,13.40
2018-08-04T17:27:24.818Z,13.03
2018-08-04T17:29:52.453Z,13.90
2018-08-04T17:32:20.083Z,13.07
2018-08-04T17:34:47.643Z,14.87
2018-08-04T17:37:15.298Z,14.70
2018-08-04T17:39:42.898Z,13.47
2018-08-04T17:42:10.540Z,13.07
2018-08-04T17:44:38.160Z,14.50
2018-08-04T17:47:05.802Z,14.77
2018-08-04T17:49:33.404Z,14.37
2018-08-04T17:52:01.144Z,13.23
2018-08-04T17:54:28.749Z,13.83
2018-08-04T17:56:56.431Z,13.60
2018-08-04T17:59:24.065Z,12.67
2018-08-04T18:01:51.664Z,14.07
2018-08-04T18:04:19.362Z,12.67
2018-08-04T18:06:47.003Z,14.73
2018-08-04T18:09:14.609Z,12.90
2018-08-04T18:11:42.191Z,13.80
2018-08-04T18:14:09.840Z,15.70
2018-08-04T18:16:37.380Z,14.57
2018-08-04T18:19:05.146Z,14.40
2018-08-04T18:21:33.010Z,15.57
2018-08-04T18:24:00.629Z,15.17
2018-08-04T18:26:28.232Z,15.20
2018-08-04T18:28:55.866Z,14.47
2018-08-04T18:31:23.544Z,15.50
2018-08-04T18:33:51.225Z,14.53
2018-08-04T18:36:18.920Z,15.17
2018-08-04T18:38:46.554Z,14.30
2018-08-04T18:41:14.199Z,14.50
2018-08-04T18:43:41.821Z,14.23
2018-08-04T18:46:09.462Z,16.27
2018-08-04T18:48:37.086Z,16.00
2018-08-04T18:51:04.670Z,14.83
2018-08-04T18:53:32.248Z,15.70
2018-08-04T18:55:59.964Z,15.50
2018-08-04T18:58:27.495Z,16.60
2018-08-04T19:00:55.715Z,14.20
2018-08-04T19:03:23.342Z,16.00
2018-08-04T19:05:51.075Z,16.60
2018-08-04T19:08:18.826Z,15.70
2018-08-04T19:10:46.472Z,15.30
2018-08-04T19:13:14.156Z,15.67
2018-08-04T19:15:42.023Z,14.40
2018-08-04T19:18:09.623Z,14.20
2018-08-04T19:20:37.829Z,14.17
2018-08-04T19:23:06.492Z,13.50
2018-08-04T19:25:34.131Z,14.87
2018-08-04T19:28:01.846Z,15.33
2018-08-04T19:30:29.447Z,15.87
2018-08-04T19:32:59.422Z,14.70
2018-08-04T19:35:27.948Z,14.37
2018-08-04T19:37:55.650Z,15.03
2018-08-04T19:40:23.219Z,14.60
2018-08-04T19:42:50.894Z,14.30
2018-08-04T19:45:18.514Z,14.77
2018-08-04T19:47:46.165Z,14.63
2018-08-04T19:50:14.274Z,14.27
2018-08-04T19:52:42.850Z,14.00
2018-08-04T19:55:10.528Z,14.73
2018-08-04T19:57:38.953Z,14.90
2018-08-04T20:00:06.848Z,14.00
2018-08-04T20:02:34.558Z,14.67
2018-08-04T20:05:02.376Z,15.63
2018-08-04T20:07:29.974Z,14.97
2018-08-04T20:09:57.588Z,16.03
2018-08-04T20:12:25.855Z,14.00
2018-08-04T20:14:53.553Z,16.00
2018-08-04T20:17:21.134Z,14.97
2018-08-04T20:19:48.765Z,15.83
2018-08-04T20:22:17.014Z,17.67
2018-08-04T20:24:45.161Z,18.37
2018-08-04T20:27:12.910Z,17.13
2018-08-04T20:29:40.686Z,20.40
2018-08-04T20:32:08.654Z,20.23
2018-08-04T20:34:36.288Z,19.80
2018-08-04T20:37:03.932Z,19.97
2018-08-04T20:39:31.836Z,20.47
2018-08-04T20:41:59.438Z,20.27
2018-08-04T20:44:27.086Z,22.70
2018-08-04T20:46:54.931Z,22.03
2018-08-04T20:49:22.497Z,20.80
2018-08-04T20:51:50.546Z,19.70
2018-08-04T20:54:18.174Z,18.03
2018-08-04T20:56:45.769Z,19.23
2018-08-04T20:59:13.430Z,17.27
2018-08-04T21:01:59.145Z,18.97
2018-08-04T21:04:27.216Z,17.73
2018-08-04T21:06:54.811Z,18.77
2018-08-04T21:09:22.558Z,19.60
2018-08-04T21:11:51.463Z,19.83
2018-08-04T21:14:20.608Z,19.07
2018-08-04T21:16:49.017Z,19.70
2018-08-04T21:19:17.084Z,18.87
2018-08-04T21:21:44.643Z,16.97
2018-08-04T21:24:12.266Z,18.60
2018-08-04T21:26:40.575Z,17.40
2018-08-04T21:29:08.203Z,18.57
2018-08-04T21:31:35.875Z,17.87
2018-08-04T21:34:03.551Z,19.10
2018-08-04T21:36:31.761Z,16.87
2018-08-04T21:39:00.283Z,19.23
2018-08-04T21:41:28.474Z,19.57
2018-08-04T21:43:56.107Z,18.60
2018-08-04T21:46:23.675Z,19.10
2018-08-04T21:48:51.342Z,16.80
2018-08-04T21:51:18.960Z,17.43
2018-08-04T21:53:46.579Z,17.70
2018-08-04T21:56:14.225Z,17.20
2018-08-04T21:58:41.877Z,17.87
2018-08-04T22:01:11.743Z,18.00
2018-08-04T22:03:41.828Z,18.40
2018-08-04T22:06:09.584Z,17.93
2018-08-04T22:09:40.325Z,19.07
2018-08-04T22:12:08.594Z,19.30
2018-08-04T22:14:36.970Z,18.83
2018-08-04T22:17:05.311Z,18.63
2018-08-04T22:19:32.891Z,20.17
2018-08-04T22:22:00.524Z,18.27
2018-08-04T22:24:28.734Z,19.57
2018-08-04T22:26:56.383Z,17.23
2018-08-04T22:29:24.894Z,17.90
2018-08-04T22:31:52.500Z,19.93
2018-08-04T22:34:20.094Z,18.50
2018-08-04T22:36:47.736Z,17.83
2018-08-04T22:39:15.340Z,19.20
2018-08-04T22:41:42.915Z,19.43
2018-08-04T22:44:10.504Z,18.90
2018-08-04T22:46:38.009Z,19.10
2018-08-04T22:49:05.626Z,17.27
2018-08-04T22:51:33.079Z,18.23
2018-08-04T22:54:00.543Z,17.63
2018-08-04T22:56:28.124Z,18.57
2018-08-04T22:58:55.732Z,17.33
2018-08-04T23:01:23.373Z,16.90
2018-08-04T23:03:51.022Z,17.43
2018-08-04T23:06:18.656Z,16.63
2018-08-04T23:08:46.252Z,17.83
2018-08-04T23:11:13.821Z,18.23
2018-08-04T23:13:41.382Z,18.10
2018-08-04T23:16:08.984Z,18.60
2018-08-04T23:18:36.580Z,19.30
2018-08-04T23:21:04.332Z,19.97
2018-08-04T23:23:31.877Z,20.53
2018-08-04T23:25:59.444Z,18.40
2018-08-04T23:28:27.152Z,18.90
2018-08-04T23:30:54.711Z,20.20
2018-08-04T23:33:22.497Z,19.77
2018-08-04T23:35:50.105Z,19.53
2018-08-04T23:38:17.659Z,22.03
2018-08-04T23:40:45.224Z,22.20
2018-08-04T23:43:12.799Z,21.03
2018-08-04T23:45:40.376Z,17.87
2018-08-04T23:48:07.923Z,19.47
2018-08-04T23:50:35.525Z,20.10
2018-08-04T23:53:03.043Z,19.10
2018-08-04T23:55:30.575Z,19.50
2018-08-04T23:57:58.134Z,20.20
